Saturday, November 18, 2017, 6:12 PM EST
Back to Local

KBWI, Baltimore-washington International

Location: Glen Burnie, MD, United States Lat: 39.167
Local Time: 6:12 PM EST (23:12 GMT) Lon: -76.683
Time Zone: US/Eastern Elev: 147 ft

Show me the last for .
Show Decoded

2017-11-18 17:54 METAR KBWI 182254Z 17005KT 10SM SCT100 OVC160 13/05 A2957 RMK AO2 SLP014
                 T01280050 =
2017-11-18 16:54 METAR KBWI 182154Z 18005KT 10SM BKN100 BKN110 OVC250 13/05 A2959 RMK AO2
                 RAB07E37 SLP021 P0000 T01280050 =
2017-11-18 15:54 METAR KBWI 182054Z 20005KT 10SM BKN090 OVC110 14/04 A2963 RMK AO2 RAB09E40
                 SLP032 P0000 60000 T01390039 56028 =
2017-11-18 14:54 METAR KBWI 181954Z 21006KT 10SM BKN120 OVC250 15/03 A2964 RMK AO2 SLP036
                 T01500033 =
2017-11-18 13:54 METAR KBWI 181854Z 21008KT 10SM BKN120 BKN160 OVC250 15/03 A2967 RMK AO2 SLP047
                 T01500033 =
2017-11-18 12:54 METAR KBWI 181754Z 20005KT 10SM BKN110 OVC250 13/03 A2971 RMK AO2 SLP060
                 T01330028 10139 20028 58047 =
2017-11-18 11:54 METAR KBWI 181654Z 20009KT 10SM BKN095 BKN120 OVC250 13/02 A2975 RMK AO2 SLP076
                 T01280022 =
2017-11-18 10:54 METAR KBWI 181554Z 00000KT 10SM SCT075 BKN090 BKN120 OVC250 09/02 A2982 RMK AO2
                 SLP099 T00940022 =
2017-11-18 09:54 METAR KBWI 181454Z VRB05KT 10SM BKN095 BKN160 OVC250 08/02 A2985 RMK AO2 SLP108
                 T00830022 58028 =
2017-11-18 08:54 METAR KBWI 181354Z 18006KT 10SM BKN160 OVC250 06/01 A2988 RMK AO2 SLP119
                 T00610011 =
2017-11-18 07:54 METAR KBWI 181254Z 18005KT 10SM SCT200 BKN250 04/01 A2991 RMK AO2 SLP128
                 T00440006 =
2017-11-18 06:54 METAR KBWI 181154Z 20003KT 10SM FEW190 FEW210 BKN250 03/M01 A2993 RMK AO2 SLP136
                 T00281006 10028 21011 58024 =
2017-11-18 05:54 METAR KBWI 181054Z 15003KT 10SM FEW190 BKN250 02/M01 A2995 RMK AO2 SLP142
                 T00221006 =
2017-11-18 04:54 METAR KBWI 180954Z 00000KT 10SM FEW210 BKN250 01/M02 A2999 RMK AO2 SLP157
                 T00061017 =
2017-11-18 03:54 METAR KBWI 180854Z 22003KT 10SM BKN250 01/M02 A3000 RMK AO2 SLP160 T00061022
                 56020 =
2017-11-18 02:54 METAR KBWI 180754Z 00000KT 10SM SCT250 02/M02 A3002 RMK AO2 SLP165 T00221022 =
2017-11-18 01:54 METAR KBWI 180654Z 23003KT 10SM SCT250 01/M02 A3004 RMK AO2 SLP171 T00061017 =
2017-11-18 00:54 METAR KBWI 180554Z 00000KT 10SM BKN250 01/M01 A3006 RMK AO2 SLP180 T00061011
                 10039 20000 58015 =
2017-11-17 23:54 METAR KBWI 180454Z 26003KT 10SM BKN250 01/M01 A3009 RMK AO2 SLP190 T00061011
                 401170000 =
2017-11-17 22:54 METAR KBWI 180354Z 25003KT 10SM BKN250 01/M02 A3010 RMK AO2 SLP193 T00061017 =
2017-11-17 21:54 METAR KBWI 180254Z 00000KT 10SM BKN250 02/M02 A3011 RMK AO2 SLP195 T00171022
                 56010 =
2017-11-17 20:54 METAR KBWI 180154Z 00000KT 10SM FEW160 BKN250 02/M02 A3012 RMK AO2 SLP199
                 T00171017 =
2017-11-17 19:54 METAR KBWI 180054Z 00000KT 10SM FEW160 SCT250 02/M02 A3013 RMK AO2 SLP202
                 T00221017 =
2017-11-17 18:54 METAR KBWI 172354Z 24003KT 10SM FEW160 FEW250 03/M02 A3014 RMK AO2 SLP207
                 T00331017 10117 20033 58001 =

Support USWX by starting your Amazon purchase here.